sensor_id;sensor_type;location;lat;lon;timestamp;temperature;humidity
2955;DHT22;1487;51.470;6.938;2023-02-28T00:01:14;-0.60;99.90
2955;DHT22;1487;51.470;6.938;2023-02-28T00:03:41;-0.60;99.90
2955;DHT22;1487;51.470;6.938;2023-02-28T00:06:09;-0.60;99.90
2955;DHT22;1487;51.470;6.938;2023-02-28T00:08:37;-0.50;99.90
2955;DHT22;1487;51.470;6.938;2023-02-28T00:11:06;-0.50;99.90
2955;DHT22;1487;51.470;6.938;2023-02-28T00:13:35;-0.50;99.90
2955;DHT22;1487;51.470;6.938;2023-02-28T00:16:04;-0.40;99.90
2955;DHT22;1487;51.470;6.938;2023-02-28T00:18:32;-0.50;99.90
2955;DHT22;1487;51.470;6.938;2023-02-28T00:20:59;-0.50;99.90
2955;DHT22;1487;51.470;6.938;2023-02-28T00:23:29;-0.50;99.90
2955;DHT22;1487;51.470;6.938;2023-02-28T00:25:56;-0.60;99.90
2955;DHT22;1487;51.470;6.938;2023-02-28T00:28:23;-0.60;99.90
2955;DHT22;1487;51.470;6.938;2023-02-28T00:30:50;-0.60;99.90
2955;DHT22;1487;51.470;6.938;2023-02-28T00:33:17;-0.60;99.90
2955;DHT22;1487;51.470;6.938;2023-02-28T00:35:44;-0.70;99.90
2955;DHT22;1487;51.470;6.938;2023-02-28T00:38:12;-0.70;99.90
2955;DHT22;1487;51.470;6.938;2023-02-28T00:40:40;-0.70;99.90
2955;DHT22;1487;51.470;6.938;2023-02-28T00:43:07;-0.80;99.90
2955;DHT22;1487;51.470;6.938;2023-02-28T00:45:34;-0.80;99.90
2955;DHT22;1487;51.470;6.938;2023-02-28T00:48:01;-0.90;99.90
2955;DHT22;1487;51.470;6.938;2023-02-28T00:50:28;-0.90;99.90
2955;DHT22;1487;51.470;6.938;2023-02-28T00:52:55;-0.90;99.90
2955;DHT22;1487;51.470;6.938;2023-02-28T00:55:22;-0.80;99.90
2955;DHT22;1487;51.470;6.938;2023-02-28T00:57:50;-0.80;99.90
2955;DHT22;1487;51.470;6.938;2023-02-28T01:00:17;-0.80;99.90
2955;DHT22;1487;51.470;6.938;2023-02-28T01:02:44;-0.90;99.90
2955;DHT22;1487;51.470;6.938;2023-02-28T01:05:11;-0.90;99.90
2955;DHT22;1487;51.470;6.938;2023-02-28T01:07:38;-0.90;99.90
2955;DHT22;1487;51.470;6.938;2023-02-28T01:10:05;-1.00;99.90
2955;DHT22;1487;51.470;6.938;2023-02-28T01:12:32;-1.00;99.90
2955;DHT22;1487;51.470;6.938;2023-02-28T01:15:00;-1.00;99.90
2955;DHT22;1487;51.470;6.938;2023-02-28T01:17:27;-1.00;99.90
2955;DHT22;1487;51.470;6.938;2023-02-28T01:19:55;-1.00;99.90
2955;DHT22;1487;51.470;6.938;2023-02-28T01:22:22;-1.00;99.90
2955;DHT22;1487;51.470;6.938;2023-02-28T01:24:49;-0.90;99.90
2955;DHT22;1487;51.470;6.938;2023-02-28T01:27:15;-0.90;99.90
2955;DHT22;1487;51.470;6.938;2023-02-28T01:29:42;-0.90;99.90
2955;DHT22;1487;51.470;6.938;2023-02-28T01:32:10;-1.00;99.90
2955;DHT22;1487;51.470;6.938;2023-02-28T01:34:37;-1.00;99.90
2955;DHT22;1487;51.470;6.938;2023-02-28T01:37:04;-1.00;99.90
2955;DHT22;1487;51.470;6.938;2023-02-28T01:39:31;-1.10;99.90
2955;DHT22;1487;51.470;6.938;2023-02-28T01:41:58;-1.10;99.90
2955;DHT22;1487;51.470;6.938;2023-02-28T01:45:00;-1.10;99.90
2955;DHT22;1487;51.470;6.938;2023-02-28T01:47:31;-1.10;99.90
2955;DHT22;1487;51.470;6.938;2023-02-28T01:50:00;-1.10;99.90
2955;DHT22;1487;51.470;6.938;2023-02-28T01:52:28;-1.10;99.90
2955;DHT22;1487;51.470;6.938;2023-02-28T01:54:57;-1.10;99.90
2955;DHT22;1487;51.470;6.938;2023-02-28T01:57:28;-1.10;99.90
2955;DHT22;1487;51.470;6.938;2023-02-28T01:59:58;-1.10;99.90
2955;DHT22;1487;51.470;6.938;2023-02-28T02:02:28;-1.10;99.90
2955;DHT22;1487;51.470;6.938;2023-02-28T02:04:59;-1.10;99.90
2955;DHT22;1487;51.470;6.938;2023-02-28T02:07:30;-1.20;99.90
2955;DHT22;1487;51.470;6.938;2023-02-28T02:10:05;-1.20;99.90
2955;DHT22;1487;51.470;6.938;2023-02-28T02:12:45;-1.30;99.90
2955;DHT22;1487;51.470;6.938;2023-02-28T02:15:22;-1.30;99.90
2955;DHT22;1487;51.470;6.938;2023-02-28T02:17:57;-1.30;99.90
2955;DHT22;1487;51.470;6.938;2023-02-28T02:20:52;-1.30;99.90
2955;DHT22;1487;51.470;6.938;2023-02-28T02:32:52;-1.50;99.90
2955;DHT22;1487;51.470;6.938;2023-02-28T02:35:32;-1.60;99.90
2955;DHT22;1487;51.470;6.938;2023-02-28T02:38:08;-1.60;99.90
2955;DHT22;1487;51.470;6.938;2023-02-28T02:40:42;-1.70;99.90
2955;DHT22;1487;51.470;6.938;2023-02-28T02:43:15;-1.70;99.90
2955;DHT22;1487;51.470;6.938;2023-02-28T02:45:47;-1.70;99.90
2955;DHT22;1487;51.470;6.938;2023-02-28T02:48:18;-1.70;99.90
2955;DHT22;1487;51.470;6.938;2023-02-28T02:50:52;-1.70;99.90
2955;DHT22;1487;51.470;6.938;2023-02-28T02:53:24;-1.70;99.90
2955;DHT22;1487;51.470;6.938;2023-02-28T02:55:53;-1.70;99.90
2955;DHT22;1487;51.470;6.938;2023-02-28T02:58:23;-1.80;99.90
2955;DHT22;1487;51.470;6.938;2023-02-28T03:00:53;-1.80;99.90
2955;DHT22;1487;51.470;6.938;2023-02-28T03:03:22;-1.80;99.90
2955;DHT22;1487;51.470;6.938;2023-02-28T03:05:56;-1.70;99.90
2955;DHT22;1487;51.470;6.938;2023-02-28T03:08:23;-1.70;99.90
2955;DHT22;1487;51.470;6.938;2023-02-28T03:10:52;-1.70;99.90
2955;DHT22;1487;51.470;6.938;2023-02-28T03:16:33;-1.70;99.90
2955;DHT22;1487;51.470;6.938;2023-02-28T03:22:23;-1.70;99.90
2955;DHT22;1487;51.470;6.938;2023-02-28T03:24:55;-1.60;99.90
2955;DHT22;1487;51.470;6.938;2023-02-28T03:27:26;-1.70;99.90
2955;DHT22;1487;51.470;6.938;2023-02-28T03:30:00;-1.70;99.90
2955;DHT22;1487;51.470;6.938;2023-02-28T03:32:32;-1.70;99.90
2955;DHT22;1487;51.470;6.938;2023-02-28T03:35:05;-1.70;99.90
2955;DHT22;1487;51.470;6.938;2023-02-28T03:37:38;-1.70;99.90
2955;DHT22;1487;51.470;6.938;2023-02-28T03:40:10;-1.70;99.90
2955;DHT22;1487;51.470;6.938;2023-02-28T03:42:42;-1.60;99.90
2955;DHT22;1487;51.470;6.938;2023-02-28T03:45:11;-1.60;99.90
2955;DHT22;1487;51.470;6.938;2023-02-28T03:47:43;-1.70;99.90
2955;DHT22;1487;51.470;6.938;2023-02-28T03:50:12;-1.70;99.90
2955;DHT22;1487;51.470;6.938;2023-02-28T03:52:45;-1.80;99.90
2955;DHT22;1487;51.470;6.938;2023-02-28T03:55:14;-1.80;99.90
2955;DHT22;1487;51.470;6.938;2023-02-28T03:57:48;-1.80;99.90
2955;DHT22;1487;51.470;6.938;2023-02-28T04:00:20;-1.80;99.90
2955;DHT22;1487;51.470;6.938;2023-02-28T04:02:47;-1.80;99.90
2955;DHT22;1487;51.470;6.938;2023-02-28T04:05:18;-1.90;99.90
2955;DHT22;1487;51.470;6.938;2023-02-28T04:07:47;-2.00;99.90
2955;DHT22;1487;51.470;6.938;2023-02-28T04:10:16;-2.00;99.90
2955;DHT22;1487;51.470;6.938;2023-02-28T04:12:43;-2.00;99.90
2955;DHT22;1487;51.470;6.938;2023-02-28T04:15:10;-2.00;99.90
2955;DHT22;1487;51.470;6.938;2023-02-28T04:17:37;-2.10;99.90
2955;DHT22;1487;51.470;6.938;2023-02-28T04:20:05;-2.00;99.90
2955;DHT22;1487;51.470;6.938;2023-02-28T04:22:35;-2.10;99.90
2955;DHT22;1487;51.470;6.938;2023-02-28T04:25:05;-2.10;99.90
2955;DHT22;1487;51.470;6.938;2023-02-28T04:27:32;-2.10;99.90
2955;DHT22;1487;51.470;6.938;2023-02-28T04:29:59;-2.10;99.90
2955;DHT22;1487;51.470;6.938;2023-02-28T04:32:26;-2.20;99.90
2955;DHT22;1487;51.470;6.938;2023-02-28T04:34:53;-2.20;99.90
2955;DHT22;1487;51.470;6.938;2023-02-28T04:37:20;-2.10;99.90
2955;DHT22;1487;51.470;6.938;2023-02-28T04:39:53;-2.10;99.90
2955;DHT22;1487;51.470;6.938;2023-02-28T04:42:21;-2.10;99.90
2955;DHT22;1487;51.470;6.938;2023-02-28T04:44:48;-2.10;99.90
2955;DHT22;1487;51.470;6.938;2023-02-28T04:47:15;-2.10;99.90
2955;DHT22;1487;51.470;6.938;2023-02-28T04:49:42;-2.10;99.90
2955;DHT22;1487;51.470;6.938;2023-02-28T04:52:09;-2.10;99.90
2955;DHT22;1487;51.470;6.938;2023-02-28T04:54:36;-2.10;99.90
2955;DHT22;1487;51.470;6.938;2023-02-28T04:57:04;-2.00;99.90
2955;DHT22;1487;51.470;6.938;2023-02-28T04:59:32;-2.10;99.90
2955;DHT22;1487;51.470;6.938;2023-02-28T05:01:59;-2.10;99.90
2955;DHT22;1487;51.470;6.938;2023-02-28T05:04:32;-2.10;99.90
2955;DHT22;1487;51.470;6.938;2023-02-28T05:07:00;-2.10;99.90
2955;DHT22;1487;51.470;6.938;2023-02-28T05:09:27;-2.10;99.90
2955;DHT22;1487;51.470;6.938;2023-02-28T05:11:54;-2.00;99.90
2955;DHT22;1487;51.470;6.938;2023-02-28T05:14:22;-2.10;99.90
2955;DHT22;1487;51.470;6.938;2023-02-28T05:16:50;-2.20;99.90
2955;DHT22;1487;51.470;6.938;2023-02-28T05:19:17;-2.30;99.90
2955;DHT22;1487;51.470;6.938;2023-02-28T05:21:49;-2.40;99.90
2955;DHT22;1487;51.470;6.938;2023-02-28T05:24:17;-2.40;99.90
2955;DHT22;1487;51.470;6.938;2023-02-28T05:26:48;-2.40;99.90
2955;DHT22;1487;51.470;6.938;2023-02-28T05:29:16;-2.40;99.90
2955;DHT22;1487;51.470;6.938;2023-02-28T05:31:43;-2.40;99.90
2955;DHT22;1487;51.470;6.938;2023-02-28T05:34:11;-2.30;99.90
2955;DHT22;1487;51.470;6.938;2023-02-28T05:36:38;-2.20;99.90
2955;DHT22;1487;51.470;6.938;2023-02-28T05:39:06;-2.30;99.90
2955;DHT22;1487;51.470;6.938;2023-02-28T05:41:38;-2.30;99.90
2955;DHT22;1487;51.470;6.938;2023-02-28T05:44:05;-2.20;99.90
2955;DHT22;1487;51.470;6.938;2023-02-28T05:46:32;-2.30;99.90
2955;DHT22;1487;51.470;6.938;2023-02-28T05:48:59;-2.30;99.90
2955;DHT22;1487;51.470;6.938;2023-02-28T05:51:28;-2.30;99.90
2955;DHT22;1487;51.470;6.938;2023-02-28T05:53:58;-2.20;99.90
2955;DHT22;1487;51.470;6.938;2023-02-28T05:56:25;-2.20;99.90
2955;DHT22;1487;51.470;6.938;2023-02-28T05:58:52;-2.30;99.90
2955;DHT22;1487;51.470;6.938;2023-02-28T06:01:24;-2.20;99.90
2955;DHT22;1487;51.470;6.938;2023-02-28T06:03:51;-2.20;99.90
2955;DHT22;1487;51.470;6.938;2023-02-28T06:06:18;-2.30;99.90
2955;DHT22;1487;51.470;6.938;2023-02-28T06:08:46;-2.30;99.90
2955;DHT22;1487;51.470;6.938;2023-02-28T06:11:13;-2.40;99.90
2955;DHT22;1487;51.470;6.938;2023-02-28T06:13:40;-2.40;99.90
2955;DHT22;1487;51.470;6.938;2023-02-28T06:16:08;-2.40;99.90
2955;DHT22;1487;51.470;6.938;2023-02-28T06:18:35;-2.30;99.90
2955;DHT22;1487;51.470;6.938;2023-02-28T06:21:02;-2.40;99.90
2955;DHT22;1487;51.470;6.938;2023-02-28T06:23:29;-2.30;99.90
2955;DHT22;1487;51.470;6.938;2023-02-28T06:25:57;-2.30;99.90
2955;DHT22;1487;51.470;6.938;2023-02-28T06:28:24;-2.40;99.90
2955;DHT22;1487;51.470;6.938;2023-02-28T06:30:51;-2.30;99.90
2955;DHT22;1487;51.470;6.938;2023-02-28T06:33:18;-2.30;99.90
2955;DHT22;1487;51.470;6.938;2023-02-28T06:35:46;-2.30;99.90
2955;DHT22;1487;51.470;6.938;2023-02-28T06:38:13;-2.30;99.90
2955;DHT22;1487;51.470;6.938;2023-02-28T06:40:40;-2.30;99.90
2955;DHT22;1487;51.470;6.938;2023-02-28T06:43:08;-2.30;99.90
2955;DHT22;1487;51.470;6.938;2023-02-28T06:45:42;-2.20;99.90
2955;DHT22;1487;51.470;6.938;2023-02-28T06:48:08;-2.20;99.90
2955;DHT22;1487;51.470;6.938;2023-02-28T06:50:35;-2.10;99.90
2955;DHT22;1487;51.470;6.938;2023-02-28T06:53:02;-2.10;99.90
2955;DHT22;1487;51.470;6.938;2023-02-28T06:55:29;-2.00;99.90
2955;DHT22;1487;51.470;6.938;2023-02-28T06:57:57;-1.90;99.90
2955;DHT22;1487;51.470;6.938;2023-02-28T07:00:25;-1.90;99.90
2955;DHT22;1487;51.470;6.938;2023-02-28T07:02:52;-1.80;99.90
2955;DHT22;1487;51.470;6.938;2023-02-28T07:05:20;-1.70;99.90
2955;DHT22;1487;51.470;6.938;2023-02-28T07:07:47;-1.50;99.90
2955;DHT22;1487;51.470;6.938;2023-02-28T07:10:14;-1.40;99.90
2955;DHT22;1487;51.470;6.938;2023-02-28T07:12:42;-1.20;99.90
2955;DHT22;1487;51.470;6.938;2023-02-28T07:15:10;-1.10;99.90
2955;DHT22;1487;51.470;6.938;2023-02-28T07:17:38;-1.00;99.90
2955;DHT22;1487;51.470;6.938;2023-02-28T07:20:07;-0.90;99.90
2955;DHT22;1487;51.470;6.938;2023-02-28T07:22:34;-0.70;99.90
2955;DHT22;1487;51.470;6.938;2023-02-28T07:25:01;-0.60;99.90
2955;DHT22;1487;51.470;6.938;2023-02-28T07:27:28;-0.50;99.90
2955;DHT22;1487;51.470;6.938;2023-02-28T07:29:54;-0.40;99.90
2955;DHT22;1487;51.470;6.938;2023-02-28T07:32:21;-0.30;99.90
2955;DHT22;1487;51.470;6.938;2023-02-28T07:34:49;-0.20;99.90
2955;DHT22;1487;51.470;6.938;2023-02-28T07:37:16;-0.10;99.90
2955;DHT22;1487;51.470;6.938;2023-02-28T07:39:43;0.10;99.90
2955;DHT22;1487;51.470;6.938;2023-02-28T07:42:10;0.30;99.90
2955;DHT22;1487;51.470;6.938;2023-02-28T07:44:38;0.80;99.90
2955;DHT22;1487;51.470;6.938;2023-02-28T07:47:06;1.60;99.90
2955;DHT22;1487;51.470;6.938;2023-02-28T07:49:34;2.30;99.90
2955;DHT22;1487;51.470;6.938;2023-02-28T07:52:03;3.00;99.90
2955;DHT22;1487;51.470;6.938;2023-02-28T07:54:30;3.60;99.90
2955;DHT22;1487;51.470;6.938;2023-02-28T07:56:56;4.30;99.90
2955;DHT22;1487;51.470;6.938;2023-02-28T07:59:23;5.00;99.90
2955;DHT22;1487;51.470;6.938;2023-02-28T08:01:51;6.30;99.90
2955;DHT22;1487;51.470;6.938;2023-02-28T08:04:18;7.00;93.70
2955;DHT22;1487;51.470;6.938;2023-02-28T08:06:44;7.00;87.40
2955;DHT22;1487;51.470;6.938;2023-02-28T08:09:13;7.40;87.70
2955;DHT22;1487;51.470;6.938;2023-02-28T08:11:40;8.30;85.60
2955;DHT22;1487;51.470;6.938;2023-02-28T08:14:07;8.80;80.00
2955;DHT22;1487;51.470;6.938;2023-02-28T08:16:33;9.90;80.20
2955;DHT22;1487;51.470;6.938;2023-02-28T08:19:00;11.00;71.30
2955;DHT22;1487;51.470;6.938;2023-02-28T08:21:27;12.10;67.30
2955;DHT22;1487;51.470;6.938;2023-02-28T08:23:54;12.80;60.60
2955;DHT22;1487;51.470;6.938;2023-02-28T08:26:23;12.10;57.20
2955;DHT22;1487;51.470;6.938;2023-02-28T08:28:50;11.20;57.00
2955;DHT22;1487;51.470;6.938;2023-02-28T08:31:18;10.60;57.10
2955;DHT22;1487;51.470;6.938;2023-02-28T08:33:45;10.70;57.70
2955;DHT22;1487;51.470;6.938;2023-02-28T08:36:14;10.20;57.50
2955;DHT22;1487;51.470;6.938;2023-02-28T08:38:41;10.60;59.60
2955;DHT22;1487;51.470;6.938;2023-02-28T08:41:11;12.10;59.10
2955;DHT22;1487;51.470;6.938;2023-02-28T08:43:39;13.60;57.10
2955;DHT22;1487;51.470;6.938;2023-02-28T08:46:07;15.20;53.60
2955;DHT22;1487;51.470;6.938;2023-02-28T08:48:35;16.20;51.20
2955;DHT22;1487;51.470;6.938;2023-02-28T08:51:06;17.40;50.30
2955;DHT22;1487;51.470;6.938;2023-02-28T08:53:35;18.60;49.00
2955;DHT22;1487;51.470;6.938;2023-02-28T08:56:03;20.10;47.90
2955;DHT22;1487;51.470;6.938;2023-02-28T08:58:31;20.90;44.70
2955;DHT22;1487;51.470;6.938;2023-02-28T09:01:00;21.30;42.40
2955;DHT22;1487;51.470;6.938;2023-02-28T09:03:27;21.60;41.00
2955;DHT22;1487;51.470;6.938;2023-02-28T09:05:55;21.40;40.00
2955;DHT22;1487;51.470;6.938;2023-02-28T09:08:22;20.70;39.90
2955;DHT22;1487;51.470;6.938;2023-02-28T09:10:49;20.80;40.00
2955;DHT22;1487;51.470;6.938;2023-02-28T09:13:16;21.60;41.10
2955;DHT22;1487;51.470;6.938;2023-02-28T09:15:43;22.00;39.70
2955;DHT22;1487;51.470;6.938;2023-02-28T09:18:11;21.90;38.10
2955;DHT22;1487;51.470;6.938;2023-02-28T09:20:39;21.90;38.10
2955;DHT22;1487;51.470;6.938;2023-02-28T09:23:06;21.40;37.20
2955;DHT22;1487;51.470;6.938;2023-02-28T09:25:33;21.00;37.60
2955;DHT22;1487;51.470;6.938;2023-02-28T09:28:00;20.50;37.40
2955;DHT22;1487;51.470;6.938;2023-02-28T09:30:28;20.20;38.60
2955;DHT22;1487;51.470;6.938;2023-02-28T09:32:54;20.20;37.90
2955;DHT22;1487;51.470;6.938;2023-02-28T09:35:24;20.20;37.80
2955;DHT22;1487;51.470;6.938;2023-02-28T09:37:52;20.20;37.50
2955;DHT22;1487;51.470;6.938;2023-02-28T09:40:21;19.70;37.00
2955;DHT22;1487;51.470;6.938;2023-02-28T09:42:51;19.10;37.80
2955;DHT22;1487;51.470;6.938;2023-02-28T09:45:23;18.30;37.70
2955;DHT22;1487;51.470;6.938;2023-02-28T09:47:52;17.90;38.80
2955;DHT22;1487;51.470;6.938;2023-02-28T09:50:29;17.80;39.60
2955;DHT22;1487;51.470;6.938;2023-02-28T09:52:59;17.40;37.80
2955;DHT22;1487;51.470;6.938;2023-02-28T09:55:31;15.90;38.00
2955;DHT22;1487;51.470;6.938;2023-02-28T09:58:01;15.10;39.30
2955;DHT22;1487;51.470;6.938;2023-02-28T10:00:31;13.40;39.50
2955;DHT22;1487;51.470;6.938;2023-02-28T10:03:20;12.70;40.30
2955;DHT22;1487;51.470;6.938;2023-02-28T10:05:57;11.70;41.20
2955;DHT22;1487;51.470;6.938;2023-02-28T10:08:30;11.30;42.40
2955;DHT22;1487;51.470;6.938;2023-02-28T10:11:01;11.40;43.50
2955;DHT22;1487;51.470;6.938;2023-02-28T10:13:34;11.60;44.30
2955;DHT22;1487;51.470;6.938;2023-02-28T10:16:05;11.40;44.40
2955;DHT22;1487;51.470;6.938;2023-02-28T10:18:40;11.40;44.50
2955;DHT22;1487;51.470;6.938;2023-02-28T10:21:17;10.70;45.30
2955;DHT22;1487;51.470;6.938;2023-02-28T10:23:46;10.00;45.70
2955;DHT22;1487;51.470;6.938;2023-02-28T10:26:17;10.20;46.30
2955;DHT22;1487;51.470;6.938;2023-02-28T10:28:44;10.10;46.20
2955;DHT22;1487;51.470;6.938;2023-02-28T10:31:15;9.20;47.90
2955;DHT22;1487;51.470;6.938;2023-02-28T10:33:44;8.60;48.10
2955;DHT22;1487;51.470;6.938;2023-02-28T10:36:14;8.10;49.30
2955;DHT22;1487;51.470;6.938;2023-02-28T10:38:43;7.70;50.50
2955;DHT22;1487;51.470;6.938;2023-02-28T10:41:12;7.80;50.80
2955;DHT22;1487;51.470;6.938;2023-02-28T10:43:41;7.60;50.70
2955;DHT22;1487;51.470;6.938;2023-02-28T10:46:13;7.20;50.90
2955;DHT22;1487;51.470;6.938;2023-02-28T10:49:01;6.90;51.10
2955;DHT22;1487;51.470;6.938;2023-02-28T10:51:37;6.50;51.10
2955;DHT22;1487;51.470;6.938;2023-02-28T10:54:04;6.60;51.80
2955;DHT22;1487;51.470;6.938;2023-02-28T10:56:32;6.60;51.90
2955;DHT22;1487;51.470;6.938;2023-02-28T10:59:00;6.80;51.70
2955;DHT22;1487;51.470;6.938;2023-02-28T11:01:39;7.30;51.30
2955;DHT22;1487;51.470;6.938;2023-02-28T11:04:31;7.70;50.70
2955;DHT22;1487;51.470;6.938;2023-02-28T11:07:06;8.20;50.00
2955;DHT22;1487;51.470;6.938;2023-02-28T11:09:38;8.90;49.20
2955;DHT22;1487;51.470;6.938;2023-02-28T11:12:08;9.50;49.00
2955;DHT22;1487;51.470;6.938;2023-02-28T11:14:49;10.20;47.30
2955;DHT22;1487;51.470;6.938;2023-02-28T11:17:20;11.40;46.40
2955;DHT22;1487;51.470;6.938;2023-02-28T11:19:52;11.60;44.30
2955;DHT22;1487;51.470;6.938;2023-02-28T11:22:24;11.20;43.20
2955;DHT22;1487;51.470;6.938;2023-02-28T11:24:56;11.00;43.70
2955;DHT22;1487;51.470;6.938;2023-02-28T11:27:42;11.00;44.00
2955;DHT22;1487;51.470;6.938;2023-02-28T11:30:24;10.80;44.10
2955;DHT22;1487;51.470;6.938;2023-02-28T11:32:51;11.00;44.40
2955;DHT22;1487;51.470;6.938;2023-02-28T11:35:24;10.40;44.20
2955;DHT22;1487;51.470;6.938;2023-02-28T11:37:53;10.30;45.00
2955;DHT22;1487;51.470;6.938;2023-02-28T11:40:24;10.30;44.80
2955;DHT22;1487;51.470;6.938;2023-02-28T11:43:07;10.40;45.00
2955;DHT22;1487;51.470;6.938;2023-02-28T11:45:51;10.30;45.00
2955;DHT22;1487;51.470;6.938;2023-02-28T11:48:25;10.60;44.70
2955;DHT22;1487;51.470;6.938;2023-02-28T11:51:10;10.40;44.70
2955;DHT22;1487;51.470;6.938;2023-02-28T11:53:58;10.10;44.90
2955;DHT22;1487;51.470;6.938;2023-02-28T11:56:33;10.00;45.90
2955;DHT22;1487;51.470;6.938;2023-02-28T11:59:13;10.70;45.80
2955;DHT22;1487;51.470;6.938;2023-02-28T12:01:58;11.10;45.90
2955;DHT22;1487;51.470;6.938;2023-02-28T12:04:37;11.40;45.40
2955;DHT22;1487;51.470;6.938;2023-02-28T12:07:11;11.90;45.10
2955;DHT22;1487;51.470;6.938;2023-02-28T12:09:55;11.80;45.50
2955;DHT22;1487;51.470;6.938;2023-02-28T12:12:38;12.20;44.70
2955;DHT22;1487;51.470;6.938;2023-02-28T12:15:32;12.30;44.70
2955;DHT22;1487;51.470;6.938;2023-02-28T12:18:18;12.00;43.70
2955;DHT22;1487;51.470;6.938;2023-02-28T12:20:52;11.60;43.60
2955;DHT22;1487;51.470;6.938;2023-02-28T12:23:47;11.00;44.80
2955;DHT22;1487;51.470;6.938;2023-02-28T12:26:27;11.30;46.00
2955;DHT22;1487;51.470;6.938;2023-02-28T12:28:59;11.70;45.30
2955;DHT22;1487;51.470;6.938;2023-02-28T12:31:30;11.70;44.90
2955;DHT22;1487;51.470;6.938;2023-02-28T12:34:04;12.00;45.50
2955;DHT22;1487;51.470;6.938;2023-02-28T12:36:34;11.90;45.00
2955;DHT22;1487;51.470;6.938;2023-02-28T12:39:05;11.00;44.70
2955;DHT22;1487;51.470;6.938;2023-02-28T12:41:40;10.90;46.10
2955;DHT22;1487;51.470;6.938;2023-02-28T12:44:09;11.20;46.50
2955;DHT22;1487;51.470;6.938;2023-02-28T12:46:41;11.20;45.70
2955;DHT22;1487;51.470;6.938;2023-02-28T12:49:12;11.60;46.50
2955;DHT22;1487;51.470;6.938;2023-02-28T12:51:39;11.80;45.90
2955;DHT22;1487;51.470;6.938;2023-02-28T12:54:17;11.70;45.30
2955;DHT22;1487;51.470;6.938;2023-02-28T12:56:52;11.90;45.50
2955;DHT22;1487;51.470;6.938;2023-02-28T12:59:25;11.80;45.30
2955;DHT22;1487;51.470;6.938;2023-02-28T13:05:24;11.70;46.10
2955;DHT22;1487;51.470;6.938;2023-02-28T13:08:11;11.80;46.90
2955;DHT22;1487;51.470;6.938;2023-02-28T13:10:45;11.90;46.60
2955;DHT22;1487;51.470;6.938;2023-02-28T13:13:19;11.70;46.40
2955;DHT22;1487;51.470;6.938;2023-02-28T13:16:01;11.50;46.80
2955;DHT22;1487;51.470;6.938;2023-02-28T13:18:31;12.10;47.00
2955;DHT22;1487;51.470;6.938;2023-02-28T13:21:00;12.50;46.40
2955;DHT22;1487;51.470;6.938;2023-02-28T13:24:00;12.60;45.60
2955;DHT22;1487;51.470;6.938;2023-02-28T13:29:38;13.00;47.00
2955;DHT22;1487;51.470;6.938;2023-02-28T13:38:21;13.60;46.30
2955;DHT22;1487;51.470;6.938;2023-02-28T13:40:48;13.70;45.90
2955;DHT22;1487;51.470;6.938;2023-02-28T13:43:17;13.50;45.80
2955;DHT22;1487;51.470;6.938;2023-02-28T13:46:10;13.30;45.50
2955;DHT22;1487;51.470;6.938;2023-02-28T13:48:38;13.20;46.10
2955;DHT22;1487;51.470;6.938;2023-02-28T13:51:40;12.80;46.20
2955;DHT22;1487;51.470;6.938;2023-02-28T13:54:28;13.40;46.60
2955;DHT22;1487;51.470;6.938;2023-02-28T13:57:08;13.20;46.60
2955;DHT22;1487;51.470;6.938;2023-02-28T13:59:46;13.20;46.50
2955;DHT22;1487;51.470;6.938;2023-02-28T14:02:38;13.40;46.70
2955;DHT22;1487;51.470;6.938;2023-02-28T14:05:13;13.30;46.40
2955;DHT22;1487;51.470;6.938;2023-02-28T14:07:45;12.90;46.40
2955;DHT22;1487;51.470;6.938;2023-02-28T14:10:23;13.10;46.30
2955;DHT22;1487;51.470;6.938;2023-02-28T14:13:02;13.50;47.00
2955;DHT22;1487;51.470;6.938;2023-02-28T14:15:47;13.70;47.00
2955;DHT22;1487;51.470;6.938;2023-02-28T14:18:25;13.20;46.00
2955;DHT22;1487;51.470;6.938;2023-02-28T14:20:59;13.20;46.30
2955;DHT22;1487;51.470;6.938;2023-02-28T14:23:50;12.90;47.40
2955;DHT22;1487;51.470;6.938;2023-02-28T14:26:47;12.90;46.70
2955;DHT22;1487;51.470;6.938;2023-02-28T14:32:26;12.10;46.70
2955;DHT22;1487;51.470;6.938;2023-02-28T14:35:02;12.10;47.90
2955;DHT22;1487;51.470;6.938;2023-02-28T14:37:39;12.00;47.60
2955;DHT22;1487;51.470;6.938;2023-02-28T14:40:12;11.80;47.80
2955;DHT22;1487;51.470;6.938;2023-02-28T14:42:47;11.50;48.90
2955;DHT22;1487;51.470;6.938;2023-02-28T14:45:19;11.60;49.30
2955;DHT22;1487;51.470;6.938;2023-02-28T14:47:47;11.60;48.80
2955;DHT22;1487;51.470;6.938;2023-02-28T14:50:21;11.50;48.70
2955;DHT22;1487;51.470;6.938;2023-02-28T14:52:52;11.80;48.90
2955;DHT22;1487;51.470;6.938;2023-02-28T14:55:24;11.60;48.50
2955;DHT22;1487;51.470;6.938;2023-02-28T14:57:53;11.50;48.40
2955;DHT22;1487;51.470;6.938;2023-02-28T15:00:23;11.70;48.50
2955;DHT22;1487;51.470;6.938;2023-02-28T15:02:51;11.40;48.80
2955;DHT22;1487;51.470;6.938;2023-02-28T15:05:28;11.30;49.40
2955;DHT22;1487;51.470;6.938;2023-02-28T15:08:05;10.80;49.70
2955;DHT22;1487;51.470;6.938;2023-02-28T15:10:33;10.90;51.20
2955;DHT22;1487;51.470;6.938;2023-02-28T15:13:02;10.90;51.20
2955;DHT22;1487;51.470;6.938;2023-02-28T15:15:40;10.60;51.20
2955;DHT22;1487;51.470;6.938;2023-02-28T15:18:14;10.60;50.90
2955;DHT22;1487;51.470;6.938;2023-02-28T15:20:44;10.70;50.90
2955;DHT22;1487;51.470;6.938;2023-02-28T15:23:12;10.50;50.30
2955;DHT22;1487;51.470;6.938;2023-02-28T15:25:40;10.00;51.40
2955;DHT22;1487;51.470;6.938;2023-02-28T15:28:12;9.80;52.10
2955;DHT22;1487;51.470;6.938;2023-02-28T15:30:51;9.70;52.70
2955;DHT22;1487;51.470;6.938;2023-02-28T15:33:19;9.40;52.50
2955;DHT22;1487;51.470;6.938;2023-02-28T15:35:48;9.10;52.40
2955;DHT22;1487;51.470;6.938;2023-02-28T15:38:17;8.90;52.80
2955;DHT22;1487;51.470;6.938;2023-02-28T15:40:45;8.60;53.10
2955;DHT22;1487;51.470;6.938;2023-02-28T15:43:23;8.20;53.70
2955;DHT22;1487;51.470;6.938;2023-02-28T15:45:52;8.00;54.30
2955;DHT22;1487;51.470;6.938;2023-02-28T15:48:23;7.60;55.90
2955;DHT22;1487;51.470;6.938;2023-02-28T15:50:52;7.20;56.00
2955;DHT22;1487;51.470;6.938;2023-02-28T15:53:23;6.60;56.80
2955;DHT22;1487;51.470;6.938;2023-02-28T15:55:55;6.30;58.10
2955;DHT22;1487;51.470;6.938;2023-02-28T15:58:24;6.10;59.20
2955;DHT22;1487;51.470;6.938;2023-02-28T16:01:04;5.90;60.30
2955;DHT22;1487;51.470;6.938;2023-02-28T16:03:38;5.80;61.90
2955;DHT22;1487;51.470;6.938;2023-02-28T16:06:26;5.60;62.70
2955;DHT22;1487;51.470;6.938;2023-02-28T16:08:57;5.60;63.80
2955;DHT22;1487;51.470;6.938;2023-02-28T16:11:24;5.40;65.70
2955;DHT22;1487;51.470;6.938;2023-02-28T16:13:51;5.30;65.80
2955;DHT22;1487;51.470;6.938;2023-02-28T16:16:20;5.20;67.30
2955;DHT22;1487;51.470;6.938;2023-02-28T16:18:48;5.10;69.50
2955;DHT22;1487;51.470;6.938;2023-02-28T16:21:16;4.90;70.50
2955;DHT22;1487;51.470;6.938;2023-02-28T16:23:43;4.70;71.40
2955;DHT22;1487;51.470;6.938;2023-02-28T16:26:16;4.50;72.70
2955;DHT22;1487;51.470;6.938;2023-02-28T16:28:44;4.50;75.10
2955;DHT22;1487;51.470;6.938;2023-02-28T16:31:12;4.40;76.10
2955;DHT22;1487;51.470;6.938;2023-02-28T16:33:42;4.50;76.00
2955;DHT22;1487;51.470;6.938;2023-02-28T16:36:12;4.40;76.50
2955;DHT22;1487;51.470;6.938;2023-02-28T16:38:41;4.30;77.80
2955;DHT22;1487;51.470;6.938;2023-02-28T16:41:12;4.30;79.00
2955;DHT22;1487;51.470;6.938;2023-02-28T16:43:45;4.20;84.50
2955;DHT22;1487;51.470;6.938;2023-02-28T16:46:12;4.10;84.80
2955;DHT22;1487;51.470;6.938;2023-02-28T16:48:39;4.00;88.00
2955;DHT22;1487;51.470;6.938;2023-02-28T16:51:11;4.00;91.70
2955;DHT22;1487;51.470;6.938;2023-02-28T16:53:38;3.90;91.40
2955;DHT22;1487;51.470;6.938;2023-02-28T16:56:08;3.80;93.40
2955;DHT22;1487;51.470;6.938;2023-02-28T16:58:39;3.80;93.40
2955;DHT22;1487;51.470;6.938;2023-02-28T17:01:05;3.80;94.90